createdAt,value
2023-01-11T00:00:49.589Z,100490.97
2023-01-11T00:03:16.218Z,100500.63
2023-01-11T00:05:43.493Z,100498.81
2023-01-11T00:08:10.714Z,100501.41
2023-01-11T00:10:37.458Z,100486.75
2023-01-11T00:13:04.220Z,100484.91
2023-01-11T00:15:31.060Z,100494.59
2023-01-11T00:17:57.682Z,100491.16
2023-01-11T00:20:24.653Z,100483.28
2023-01-11T00:22:51.068Z,100491.16
2023-01-11T00:25:17.768Z,100496.38
2023-01-11T00:27:44.192Z,100451.97
2023-01-11T00:30:11.253Z,100472.03
2023-01-11T00:32:37.620Z,100478.28
2023-01-11T00:35:04.321Z,100474.03
2023-01-11T00:37:30.694Z,100472.19
2023-01-11T00:39:57.084Z,100487.13
2023-01-11T00:42:42.130Z,100475.06
2023-01-11T00:45:27.545Z,100472.66
2023-01-11T00:48:04.751Z,100472.66
2023-01-11T00:50:35.990Z,100468.41
2023-01-11T00:53:02.903Z,100478.09
2023-01-11T00:55:31.791Z,100467.81
2023-01-11T00:57:58.610Z,100455.53
2023-01-11T01:00:25.400Z,100468.63
2023-01-11T01:02:51.884Z,100465.22
2023-01-11T01:05:18.372Z,100452.13
2023-01-11T01:07:45.588Z,100462.59
2023-01-11T01:10:14.288Z,100458.34
2023-01-11T01:12:59.303Z,100466.44
2023-01-11T01:15:25.910Z,100461.22
2023-01-11T01:17:54.806Z,100462.41
2023-01-11T01:20:22.681Z,100455.16
2023-01-11T01:22:49.219Z,100470.84
2023-01-11T01:25:16.090Z,100474.50
2023-01-11T01:27:42.461Z,100482.38
2023-01-11T01:30:09.672Z,100474.72
2023-01-11T01:32:36.029Z,100480.94
2023-01-11T01:35:02.995Z,100485.38
2023-01-11T01:37:29.349Z,100477.53
2023-01-11T01:39:55.717Z,100484.38
2023-01-11T01:42:23.936Z,100486.19
2023-01-11T01:45:01.120Z,100483.38
2023-01-11T01:47:49.311Z,100481.63
2023-01-11T01:50:17.160Z,100482.53
2023-01-11T01:52:46.261Z,100487.06
2023-01-11T01:55:14.946Z,100487.44
2023-01-11T01:57:42.469Z,100475.19
2023-01-11T02:00:10.005Z,100493.28
2023-01-11T02:02:37.279Z,100490.88
2023-01-11T02:05:04.700Z,100476.97
2023-01-11T02:07:35.411Z,100485.03
2023-01-11T02:10:10.963Z,100494.91
2023-01-11T02:12:52.090Z,100499.38
2023-01-11T02:15:20.048Z,100501.19
2023-01-11T02:17:46.565Z,100497.34
2023-01-11T02:20:48.496Z,100500.03
2023-01-11T02:23:45.609Z,100494.19
2023-01-11T02:26:24.140Z,100492.75
2023-01-11T02:29:05.568Z,100495.78
2023-01-11T02:31:44.117Z,100489.34
2023-01-11T02:34:35.442Z,100487.72
2023-01-11T02:37:46.858Z,100489.97
2023-01-11T02:40:34.683Z,100488.16
2023-01-11T02:43:27.433Z,100486.13
2023-01-11T02:46:09.366Z,100505.06
2023-01-11T02:48:49.932Z,100514.00
2023-01-11T02:51:28.279Z,100498.28
2023-01-11T02:53:56.678Z,100499.63
2023-01-11T02:56:26.582Z,100510.09
2023-01-11T02:58:55.049Z,100518.75
2023-01-11T03:01:22.648Z,100524.78
2023-01-11T03:03:50.247Z,100517.75
2023-01-11T03:06:22.984Z,100525.22
2023-01-11T03:09:08.457Z,100523.22
2023-01-11T03:12:08.744Z,100526.63
2023-01-11T03:15:00.755Z,100516.59
2023-01-11T03:17:39.836Z,100530.03
2023-01-11T03:20:18.355Z,100541.72
2023-01-11T03:23:19.340Z,100547.16
2023-01-11T03:25:54.644Z,100544.94
2023-01-11T03:28:36.135Z,100555.19
2023-01-11T03:31:10.890Z,100546.16
2023-01-11T03:33:59.904Z,100547.16
2023-01-11T03:36:30.812Z,100536.47
2023-01-11T03:39:08.141Z,100552.38
2023-01-11T03:41:37.757Z,100550.16
2023-01-11T03:44:04.690Z,100544.81
2023-01-11T03:46:50.379Z,100510.00
2023-01-11T03:49:20.964Z,100532.25
2023-01-11T03:51:47.500Z,100545.91
2023-01-11T03:54:17.359Z,100535.31
2023-01-11T03:56:54.384Z,100561.25
2023-01-11T03:59:20.783Z,100554.59
2023-01-11T04:01:47.205Z,100542.09
2023-01-11T04:04:13.601Z,100548.94
2023-01-11T04:06:40.136Z,100550.53
2023-01-11T04:09:06.754Z,100549.56
2023-01-11T04:11:33.126Z,100561.59
2023-01-11T04:13:59.535Z,100564.22
2023-01-11T04:16:25.970Z,100572.88
2023-01-11T04:18:52.343Z,100578.72
2023-01-11T04:21:18.715Z,100571.88
2023-01-11T04:23:45.193Z,100577.91
2023-01-11T04:26:11.604Z,100573.13
2023-01-11T04:28:37.963Z,100589.19
2023-01-11T04:31:04.411Z,100603.09
2023-01-11T04:33:30.777Z,100603.69
2023-01-11T04:35:57.133Z,100601.06
2023-01-11T04:38:25.015Z,100601.06
2023-01-11T04:41:11.363Z,100601.84
2023-01-11T04:43:37.714Z,100602.06
2023-01-11T04:46:04.197Z,100595.81
2023-01-11T04:48:30.587Z,100607.09
2023-01-11T04:50:56.952Z,100599.22
2023-01-11T04:53:23.313Z,100594.81
2023-01-11T04:55:49.663Z,100606.09
2023-01-11T04:58:16.025Z,100604.28
2023-01-11T05:00:42.417Z,100616.38
2023-01-11T05:03:08.824Z,100608.50
2023-01-11T05:05:35.235Z,100615.34
2023-01-11T05:08:01.600Z,100619.78
2023-01-11T05:10:27.984Z,100616.16
2023-01-11T05:12:54.343Z,100621.16
2023-01-11T05:15:20.701Z,100615.72
2023-01-11T05:17:47.111Z,100623.38
2023-01-11T05:20:13.574Z,100628.22
2023-01-11T05:22:39.949Z,100632.22
2023-01-11T05:25:06.787Z,100629.97
2023-01-11T05:27:33.151Z,100626.16
2023-01-11T05:29:59.583Z,100632.59
2023-01-11T05:32:26.365Z,100642.66
2023-01-11T05:34:52.797Z,100650.91
2023-01-11T05:37:19.160Z,100649.28
2023-01-11T05:39:45.539Z,100648.06
2023-01-11T05:42:12.027Z,100651.88
2023-01-11T05:44:58.246Z,100655.47
2023-01-11T05:47:24.747Z,100651.63
2023-01-11T05:49:51.155Z,100658.84
2023-01-11T05:52:17.646Z,100665.06
2023-01-11T05:54:44.003Z,100666.28
2023-01-11T05:57:11.800Z,100658.56
2023-01-11T05:59:38.144Z,100653.72
2023-01-11T06:02:04.622Z,100667.81
2023-01-11T06:04:31.024Z,100670.81
2023-01-11T06:06:57.536Z,100664.13
2023-01-11T06:09:24.031Z,100675.59
2023-01-11T06:11:50.489Z,100672.31
2023-01-11T06:14:16.905Z,100674.09
2023-01-11T06:16:43.361Z,100685.97
2023-01-11T06:19:11.409Z,100688.97
2023-01-11T06:21:38.734Z,100700.44
2023-01-11T06:24:05.248Z,100705.06
2023-01-11T06:26:32.294Z,100701.78
2023-01-11T06:28:58.767Z,100704.00
2023-01-11T06:31:25.228Z,100700.19
2023-01-11T06:33:51.713Z,100708.41
2023-01-11T06:36:18.228Z,100714.84
2023-01-11T06:38:44.887Z,100728.34
2023-01-11T06:41:12.420Z,100719.03
2023-01-11T06:43:41.535Z,100718.59
2023-01-11T06:46:12.593Z,100720.19
2023-01-11T06:48:39.112Z,100729.03
2023-01-11T06:51:05.687Z,100727.00
2023-01-11T06:53:32.053Z,100723.94
2023-01-11T06:55:58.893Z,100715.31
2023-01-11T06:58:26.212Z,100735.84
2023-01-11T07:00:54.092Z,100743.06
2023-01-11T07:03:23.831Z,100712.53
2023-01-11T07:05:50.211Z,100745.06
2023-01-11T07:08:16.589Z,100748.06
2023-01-11T07:10:43.716Z,100751.69
2023-01-11T07:13:11.769Z,100753.69
2023-01-11T07:15:38.297Z,100755.06
2023-01-11T07:18:04.763Z,100763.72
2023-01-11T07:20:31.195Z,100764.31
2023-01-11T07:23:01.185Z,100776.44
2023-01-11T07:25:28.299Z,100763.16
2023-01-11T07:28:03.042Z,100784.31
2023-01-11T07:30:31.062Z,100793.94
2023-01-11T07:32:58.643Z,100796.34
2023-01-11T07:35:27.444Z,100801.41
2023-01-11T07:37:54.505Z,100800.41
2023-01-11T07:40:20.873Z,100813.06
2023-01-11T07:43:07.249Z,100811.28
2023-01-11T07:45:51.791Z,100815.50
2023-01-11T07:48:24.433Z,100817.09
2023-01-11T07:50:52.322Z,100819.53
2023-01-11T07:53:19.035Z,100825.56
2023-01-11T07:55:45.465Z,100822.28
2023-01-11T07:58:12.886Z,100828.56
2023-01-11T08:00:43.347Z,100832.78
2023-01-11T08:03:10.431Z,100841.28
2023-01-11T08:05:37.356Z,100842.88
2023-01-11T08:08:04.366Z,100860.25
2023-01-11T08:10:30.807Z,100863.47
2023-01-11T08:13:15.948Z,100862.22
2023-01-11T08:15:42.676Z,100866.88
2023-01-11T08:18:11.489Z,100869.31
2023-01-11T08:20:38.707Z,100869.69
2023-01-11T08:23:06.601Z,100873.09
2023-01-11T08:25:33.242Z,100879.97
2023-01-11T08:28:01.225Z,100889.22
2023-01-11T08:30:29.308Z,100885.81
2023-01-11T08:32:57.077Z,100871.94
2023-01-11T08:35:25.069Z,100891.66
2023-01-11T08:37:51.482Z,100891.66
2023-01-11T08:40:17.971Z,100891.47
2023-01-11T08:42:44.327Z,100898.94
2023-01-11T08:45:10.916Z,100895.94
2023-01-11T08:47:37.321Z,100903.94
2023-01-11T08:50:04.994Z,100908.19
2023-01-11T08:52:31.444Z,100931.03
2023-01-11T08:54:57.839Z,100928.22
2023-01-11T08:57:24.238Z,100934.06
2023-01-11T08:59:50.641Z,100946.16
2023-01-11T09:02:17.235Z,100938.06
2023-01-11T09:04:43.639Z,100944.13
2023-01-11T09:07:10.263Z,100941.47
2023-01-11T09:09:36.833Z,100953.63
2023-01-11T09:12:05.794Z,100940.06
2023-01-11T09:14:32.385Z,100939.81
2023-01-11T09:16:58.908Z,100940.44
2023-01-11T09:19:25.599Z,100942.03
2023-01-11T09:21:52.253Z,100937.84
2023-01-11T09:24:19.026Z,100948.69
2023-01-11T09:26:45.433Z,100943.44
2023-01-11T09:29:12.051Z,100947.66
2023-01-11T09:31:38.608Z,100947.44
2023-01-11T09:34:06.847Z,100950.06
2023-01-11T09:36:35.789Z,100946.66
2023-01-11T09:39:06.277Z,100948.03
2023-01-11T09:42:03.970Z,100954.16
2023-01-11T09:44:30.867Z,100953.28
2023-01-11T09:47:23.368Z,100946.06
2023-01-11T09:49:55.963Z,100953.28
2023-01-11T09:52:28.684Z,100953.88
2023-01-11T09:54:57.085Z,100960.75
2023-01-11T09:57:38.832Z,100951.44
2023-01-11T10:00:12.077Z,100963.16
2023-01-11T10:03:20.829Z,100970.50
2023-01-11T10:06:26.953Z,100958.13
2023-01-11T10:18:29.800Z,100955.41
2023-01-11T10:18:46.407Z,100973.69
2023-01-11T10:21:16.028Z,100976.22
2023-01-11T10:23:50.280Z,100959.72
2023-01-11T10:26:27.165Z,100967.13
2023-01-11T10:29:18.788Z,100988.16
2023-01-11T10:32:02.692Z,100989.53
2023-01-11T10:34:57.268Z,100994.78
2023-01-11T10:37:46.561Z,101005.25
2023-01-11T10:40:30.494Z,100996.78
2023-01-11T10:43:03.153Z,101000.75
2023-01-11T10:45:43.396Z,100997.53
2023-01-11T10:48:33.156Z,100991.19
2023-01-11T10:51:24.913Z,101002.50
2023-01-11T10:53:56.018Z,100992.16
2023-01-11T10:56:42.442Z,100995.34
2023-01-11T10:59:28.521Z,100987.59
2023-01-11T11:02:07.163Z,100997.19
2023-01-11T11:05:05.102Z,100993.09
2023-01-11T11:07:49.155Z,101003.41
2023-01-11T11:10:31.899Z,101001.00
2023-01-11T11:13:13.862Z,100998.78
2023-01-11T11:15:56.242Z,100999.81
2023-01-11T11:18:22.996Z,100986.00
2023-01-11T11:20:49.414Z,100993.69
2023-01-11T11:23:17.549Z,100981.09
2023-01-11T11:25:48.996Z,100981.56
2023-01-11T11:28:15.312Z,100983.75
2023-01-11T11:30:44.145Z,100984.78
2023-01-11T11:33:19.640Z,100974.47
2023-01-11T11:35:56.760Z,100981.56
2023-01-11T11:38:25.661Z,100987.78
2023-01-11T11:41:03.787Z,100982.22
2023-01-11T11:43:31.751Z,100984.78
2023-01-11T11:46:00.311Z,100998.34
2023-01-11T11:48:29.232Z,100993.31
2023-01-11T11:50:58.554Z,100994.56
2023-01-11T11:53:42.974Z,100996.88
2023-01-11T11:56:18.476Z,101001.13
2023-01-11T11:58:45.675Z,101004.13
2023-01-11T12:01:44.018Z,100997.53
2023-01-11T12:04:16.955Z,101012.28
2023-01-11T12:06:44.185Z,101006.38
2023-01-11T12:09:31.419Z,101004.22
2023-01-11T12:11:57.969Z,101009.59
2023-01-11T12:14:30.189Z,101014.28
2023-01-11T12:16:58.079Z,100999.09
2023-01-11T12:19:34.775Z,101004.72
2023-01-11T12:22:26.461Z,101016.03
2023-01-11T12:25:01.987Z,101006.91
2023-01-11T12:27:39.140Z,101010.13
2023-01-11T12:30:26.953Z,101008.94
2023-01-11T12:33:02.596Z,101004.03
2023-01-11T12:35:30.375Z,101009.47
2023-01-11T12:38:04.946Z,101011.72
2023-01-11T12:40:43.336Z,101032.97
2023-01-11T12:43:29.971Z,101029.19
2023-01-11T12:46:14.789Z,101031.00
2023-01-11T12:49:02.854Z,101021.44
2023-01-11T12:51:29.131Z,101026.94
2023-01-11T12:54:25.417Z,101025.22
2023-01-11T12:57:13.861Z,101013.25
2023-01-11T12:59:49.333Z,101029.56
2023-01-11T13:02:37.356Z,101016.97
2023-01-11T13:05:12.789Z,101021.22
2023-01-11T13:07:49.066Z,101011.72
2023-01-11T13:10:24.491Z,101021.75
2023-01-11T13:13:02.740Z,101017.94
2023-01-11T13:15:57.021Z,101026.66
2023-01-11T13:18:26.312Z,101016.75
2023-01-11T13:21:02.511Z,101013.72
2023-01-11T13:23:41.859Z,101017.34
2023-01-11T13:26:22.771Z,101021.16
2023-01-11T13:28:53.417Z,101029.41
2023-01-11T13:31:20.190Z,101023.16
2023-01-11T13:33:50.574Z,101030.25
2023-01-11T13:36:23.559Z,101018.88
2023-01-11T13:38:57.741Z,101018.69
2023-01-11T13:41:30.215Z,100995.75
2023-01-11T13:44:02.289Z,100987.56
2023-01-11T13:46:46.705Z,100991.34
2023-01-11T13:49:28.275Z,100980.03
2023-01-11T13:52:10.236Z,100977.84
2023-01-11T13:54:39.512Z,100984.84
2023-01-11T13:57:11.542Z,100972.72
2023-01-11T13:59:45.654Z,100975.94
2023-01-11T14:02:39.998Z,100981.41
2023-01-11T14:05:09.721Z,100984.66
2023-01-11T14:07:51.190Z,100984.94
2023-01-11T14:10:32.736Z,100987.56
2023-01-11T14:13:12.355Z,100992.00
2023-01-11T14:15:47.757Z,100980.63
2023-01-11T14:18:17.224Z,100993.19
2023-01-11T14:21:05.465Z,100993.19
2023-01-11T14:23:53.949Z,101005.75
2023-01-11T14:26:42.404Z,101011.63
2023-01-11T14:29:30.508Z,101016.88
2023-01-11T14:32:15.496Z,101015.06
2023-01-11T14:35:10.062Z,101002.03
2023-01-11T14:37:42.517Z,100986.53
2023-01-11T14:40:30.625Z,100992.66
2023-01-11T14:43:05.941Z,100990.59
2023-01-11T14:46:10.080Z,100990.69
2023-01-11T14:48:51.482Z,100992.88
2023-01-11T14:51:41.025Z,100986.75
2023-01-11T14:54:28.597Z,100997.34
2023-01-11T14:56:56.730Z,100994.41
2023-01-11T14:59:36.903Z,100990.63
2023-01-11T15:02:03.248Z,100994.78
2023-01-11T15:04:31.710Z,100987.69
2023-01-11T15:06:58.726Z,100984.25
2023-01-11T15:09:48.134Z,100989.00
2023-01-11T15:12:15.435Z,100978.00
2023-01-11T15:14:49.876Z,100992.59
2023-01-11T15:17:37.524Z,100992.75
2023-01-11T15:20:17.897Z,100979.44
2023-01-11T15:22:45.310Z,100985.47
2023-01-11T15:25:23.327Z,100973.16
2023-01-11T15:27:50.941Z,100986.28
2023-01-11T15:30:34.537Z,100986.31
2023-01-11T15:33:19.373Z,100978.06
2023-01-11T15:35:57.670Z,100984.69
2023-01-11T15:38:34.545Z,100998.22
2023-01-11T15:41:24.250Z,100983.91
2023-01-11T15:43:56.616Z,100992.38
2023-01-11T15:46:54.256Z,100998.94
2023-01-11T15:49:41.149Z,100993.47
2023-01-11T15:52:19.833Z,100988.72
2023-01-11T15:55:13.313Z,100994.47
2023-01-11T15:58:15.181Z,100980.88
2023-01-11T16:01:12.101Z,100958.94
2023-01-11T16:04:03.488Z,101010.94
2023-01-11T16:06:40.300Z,101003.63
2023-01-11T16:09:25.050Z,101009.53
2023-01-11T16:12:28.998Z,101005.28
2023-01-11T16:15:26.376Z,101010.78
2023-01-11T16:17:53.563Z,101003.41
2023-01-11T16:20:19.926Z,101007.63
2023-01-11T16:23:03.982Z,101001.88
2023-01-11T16:25:33.054Z,100975.03
2023-01-11T16:28:00.198Z,100999.97
2023-01-11T16:30:27.800Z,100992.88
2023-01-11T16:33:20.884Z,100989.94
2023-01-11T16:35:47.274Z,101012.53
2023-01-11T16:38:17.374Z,100995.16
2023-01-11T16:40:50.125Z,100998.78
2023-01-11T16:43:29.906Z,100998.03
2023-01-11T16:45:56.476Z,100988.94
2023-01-11T16:48:29.833Z,100984.47
2023-01-11T16:51:05.502Z,100991.56
2023-01-11T16:53:32.299Z,100998.47
2023-01-11T16:56:07.666Z,100992.66
2023-01-11T16:58:36.268Z,101001.50
2023-01-11T17:01:06.122Z,100996.03
2023-01-11T17:03:38.595Z,100988.34
2023-01-11T17:06:08.057Z,100988.13
2023-01-11T17:08:36.517Z,100977.63
2023-01-11T17:11:14.797Z,100993.66
2023-01-11T17:13:53.207Z,100983.88
2023-01-11T17:16:23.538Z,100990.16
2023-01-11T17:18:50.084Z,100991.19
2023-01-11T17:21:24.259Z,100992.03
2023-01-11T17:23:52.880Z,100994.03
2023-01-11T17:26:23.289Z,100993.03
2023-01-11T17:28:52.830Z,100997.03
2023-01-11T17:31:23.809Z,100986.16
2023-01-11T17:34:00.310Z,100978.53
2023-01-11T17:36:27.244Z,100974.00
2023-01-11T17:38:55.754Z,100981.69
2023-01-11T17:41:40.984Z,100972.78
2023-01-11T17:44:34.080Z,100972.63
2023-01-11T17:47:01.096Z,100966.72
2023-01-11T17:49:27.534Z,100969.34
2023-01-11T17:51:54.016Z,100972.78
2023-01-11T17:54:22.027Z,100958.00
2023-01-11T17:56:56.052Z,100960.28
2023-01-11T17:59:25.395Z,100958.00
2023-01-11T18:01:59.745Z,100953.78
2023-01-11T18:04:27.423Z,100935.97
2023-01-11T18:06:55.777Z,100940.44
2023-01-11T18:09:26.338Z,100931.94
2023-01-11T18:11:53.326Z,100938.59
2023-01-11T18:14:24.014Z,100929.91
2023-01-11T18:17:31.936Z,100937.50
2023-01-11T18:20:22.713Z,100974.25
2023-01-11T18:23:15.284Z,100948.81
2023-01-11T18:25:44.075Z,100942.69
2023-01-11T18:28:29.403Z,100934.06
2023-01-11T18:31:01.459Z,100928.13
2023-01-11T18:33:33.886Z,100905.50
2023-01-11T18:36:03.105Z,100924.28
2023-01-11T18:38:32.105Z,100926.91
2023-01-11T18:41:20.051Z,100926.09
2023-01-11T18:43:46.536Z,100927.91
2023-01-11T18:46:13.073Z,100917.41
2023-01-11T18:48:39.516Z,100900.00
2023-01-11T18:51:05.983Z,100886.06
2023-01-11T18:53:32.352Z,100898.19
2023-01-11T18:55:58.753Z,100882.41
2023-01-11T18:58:25.152Z,100898.19
2023-01-11T19:00:51.532Z,100887.69
2023-01-11T19:03:17.946Z,100886.84
2023-01-11T19:05:44.359Z,100870.06
2023-01-11T19:08:10.815Z,100864.81
2023-01-11T19:10:37.318Z,100870.06
2023-01-11T19:13:03.838Z,100861.59
2023-01-11T19:15:30.319Z,100837.28
2023-01-11T19:17:56.845Z,100858.19
2023-01-11T19:20:23.310Z,100848.44
2023-01-11T19:22:49.712Z,100855.31
2023-01-11T19:25:16.212Z,100839.53
2023-01-11T19:27:43.068Z,100829.25
2023-01-11T19:30:10.257Z,100821.38
2023-01-11T19:32:36.840Z,100807.38
2023-01-11T19:35:03.385Z,100807.38
2023-01-11T19:37:30.189Z,100807.38
2023-01-11T19:39:56.548Z,100808.66
2023-01-11T19:42:23.776Z,100811.28
2023-01-11T19:44:51.623Z,100786.56
2023-01-11T19:47:18.138Z,100824.63
2023-01-11T19:49:44.550Z,100814.13
2023-01-11T19:52:13.542Z,100816.75
2023-01-11T19:54:43.431Z,100801.41
2023-01-11T19:57:11.632Z,100814.56
2023-01-11T19:59:38.046Z,100813.53
2023-01-11T20:02:05.335Z,100817.19
2023-01-11T20:04:32.018Z,100838.22
2023-01-11T20:06:58.440Z,100831.00
2023-01-11T20:09:25.138Z,100802.81
2023-01-11T20:11:53.030Z,100826.31
2023-01-11T20:14:19.686Z,100813.41
2023-01-11T20:16:46.273Z,100823.91
2023-01-11T20:19:13.274Z,100822.31
2023-01-11T20:21:39.808Z,100806.31
2023-01-11T20:24:06.693Z,100810.75
2023-01-11T20:26:34.013Z,100813.41
2023-01-11T20:29:01.370Z,100824.94
2023-01-11T20:31:31.610Z,100821.50
2023-01-11T20:33:59.174Z,100833.63
2023-01-11T20:36:26.052Z,100819.09
2023-01-11T20:38:53.748Z,100817.28
2023-01-11T20:41:41.759Z,100806.97
2023-01-11T20:44:08.658Z,100810.94
2023-01-11T20:46:35.859Z,100811.13
2023-01-11T20:49:02.425Z,100818.50
2023-01-11T20:51:28.915Z,100815.09
2023-01-11T20:53:55.359Z,100815.88
2023-01-11T20:56:21.913Z,100814.88
2023-01-11T20:58:50.921Z,100802.91
2023-01-11T21:01:24.904Z,100817.50
2023-01-11T21:03:51.297Z,100820.34
2023-01-11T21:06:18.020Z,100825.44
2023-01-11T21:08:44.485Z,100841.16
2023-01-11T21:11:15.302Z,100837.94
2023-01-11T21:13:41.961Z,100841.16
2023-01-11T21:16:14.528Z,100841.78
2023-01-11T21:18:43.643Z,100820.84
2023-01-11T21:21:15.660Z,100823.13
2023-01-11T21:23:42.746Z,100843.19
2023-01-11T21:26:13.137Z,100838.38
2023-01-11T21:28:40.597Z,100832.47
2023-01-11T21:31:08.493Z,100833.47
2023-01-11T21:33:36.937Z,100829.84
2023-01-11T21:36:10.260Z,100812.88
2023-01-11T21:38:37.633Z,100814.50
2023-01-11T21:41:12.151Z,100814.13
2023-01-11T21:43:38.770Z,100789.59
2023-01-11T21:46:06.416Z,100806.03
2023-01-11T21:48:33.423Z,100809.47
2023-01-11T21:51:00.260Z,100802.25
2023-01-11T21:53:33.028Z,100795.38
2023-01-11T21:56:03.910Z,100801.63
2023-01-11T21:58:30.383Z,100794.13
2023-01-11T22:00:56.815Z,100786.22
2023-01-11T22:03:27.855Z,100785.88
2023-01-11T22:06:00.686Z,100776.03
2023-01-11T22:08:27.189Z,100774.34
2023-01-11T22:11:00.676Z,100783.91
2023-01-11T22:13:31.439Z,100791.00
2023-01-11T22:16:06.219Z,100781.13
2023-01-11T22:18:33.355Z,100781.06
2023-01-11T22:21:11.597Z,100781.34
2023-01-11T22:23:38.068Z,100794.84
2023-01-11T22:26:17.641Z,100806.03
2023-01-11T22:29:04.602Z,100799.75
2023-01-11T22:31:31.393Z,100799.97
2023-01-11T22:33:58.444Z,100793.91
2023-01-11T22:36:25.944Z,100786.25
2023-01-11T22:38:53.036Z,100804.06
2023-01-11T22:41:20.282Z,100815.81
2023-01-11T22:43:46.877Z,100822.88
2023-01-11T22:46:22.312Z,100822.75
2023-01-11T22:48:49.111Z,100822.06
2023-01-11T22:51:17.513Z,100827.53
2023-01-11T22:53:45.871Z,100825.94
2023-01-11T22:56:13.423Z,100832.78
2023-01-11T22:58:39.806Z,100829.81
2023-01-11T23:01:22.394Z,100815.59
2023-01-11T23:03:49.386Z,100841.13
2023-01-11T23:06:17.985Z,100821.91
2023-01-11T23:08:44.740Z,100835.88
2023-01-11T23:11:15.606Z,100838.13
2023-01-11T23:13:55.047Z,100832.63
2023-01-11T23:16:22.681Z,100836.47
2023-01-11T23:18:49.220Z,100823.34
2023-01-11T23:21:16.869Z,100811.88
2023-01-11T23:23:43.362Z,100819.94
2023-01-11T23:26:11.715Z,100828.03
2023-01-11T23:28:39.055Z,100824.59
2023-01-11T23:31:16.617Z,100829.47
2023-01-11T23:33:50.619Z,100830.69
2023-01-11T23:36:18.502Z,100821.34
2023-01-11T23:38:45.380Z,100768.50
2023-01-11T23:41:35.952Z,100818.16
2023-01-11T23:44:04.915Z,100811.72
2023-01-11T23:46:49.966Z,100814.94
2023-01-11T23:49:16.399Z,100816.78
2023-01-11T23:51:43.360Z,100820.97
2023-01-11T23:54:15.915Z,100809.75
2023-01-11T23:56:42.617Z,100808.50
2023-01-11T23:59:09.509Z,100810.13
